Time;durP1;ratioP1;P1;durP2;ratioP2;P2;SDS_P1;SDS_P2;PMS_P1;PMS_P2;Temp;Humidity;BMP_temperature;BMP_pressure;BME280_temperature;BME280_humidity;BME280_pressure;Samples;Min_cycle;Max_cycle;Signal;HPM_P1;HPM_P2
2020/12/19 00:01:34;;;;;;;8.67;6.87;;;7.90;99.90;;;;;;483502;246;27861;-76
2020/12/19 00:03:35;;;;;;;6.87;5.90;;;8.00;99.90;;;;;;483449;246;28116;-76
2020/12/19 00:05:37;;;;;;;8.90;5.60;;;8.00;99.90;;;;;;483660;246;27983;-77
2020/12/19 00:07:38;;;;;;;7.20;5.70;;;8.00;99.90;;;;;;483715;246;27979;-76
2020/12/19 00:09:39;;;;;;;7.20;6.07;;;8.00;99.90;;;;;;483689;246;27889;-76
2020/12/19 00:11:40;;;;;;;6.73;5.90;;;8.00;99.90;;;;;;483667;246;28712;-76
2020/12/19 00:13:42;;;;;;;9.93;6.83;;;7.90;99.90;;;;;;483712;246;27859;-76
2020/12/19 00:15:43;;;;;;;7.37;5.60;;;7.90;99.90;;;;;;483725;246;28618;-77
2020/12/19 00:17:44;;;;;;;7.50;5.87;;;7.90;99.90;;;;;;483721;246;28196;-76
2020/12/19 00:19:45;;;;;;;8.97;5.87;;;7.90;99.90;;;;;;483710;246;28358;-76
2020/12/19 00:21:47;;;;;;;9.53;5.40;;;7.80;99.90;;;;;;483122;244;28813;-76
2020/12/19 00:23:48;;;;;;;6.83;5.40;;;7.80;99.90;;;;;;483220;246;28537;-76
2020/12/19 00:25:49;;;;;;;15.43;6.63;;;7.80;99.90;;;;;;483006;246;28601;-77
2020/12/19 00:27:50;;;;;;;8.27;6.30;;;7.80;99.90;;;;;;483609;246;28706;-75
2020/12/19 00:29:52;;;;;;;8.07;5.77;;;7.80;99.90;;;;;;483724;246;28200;-76
2020/12/19 00:31:53;;;;;;;9.53;6.30;;;7.80;99.90;;;;;;483587;246;27894;-77
2020/12/19 00:33:54;;;;;;;7.60;5.90;;;7.80;99.90;;;;;;483661;246;27543;-75
2020/12/19 00:35:55;;;;;;;9.10;6.37;;;7.80;99.90;;;;;;483621;245;27557;-76
2020/12/19 00:37:57;;;;;;;6.22;5.47;;;7.90;99.90;;;;;;483599;246;27941;-76
2020/12/19 00:39:58;;;;;;;11.87;6.70;;;7.90;99.90;;;;;;483540;246;27441;-76
2020/12/19 00:41:59;;;;;;;7.50;5.97;;;7.90;99.90;;;;;;483449;246;27781;-76
2020/12/19 00:44:00;;;;;;;6.30;5.67;;;7.90;99.90;;;;;;483528;246;28443;-76
2020/12/19 00:46:02;;;;;;;5.93;5.33;;;7.80;99.90;;;;;;483531;245;27655;-76
2020/12/19 00:48:03;;;;;;;7.17;5.70;;;7.80;99.90;;;;;;483569;246;27817;-76
2020/12/19 00:50:04;;;;;;;9.33;6.13;;;7.80;99.90;;;;;;483520;246;27898;-76
2020/12/19 00:52:05;;;;;;;7.40;5.93;;;7.80;99.90;;;;;;483578;246;28256;-76
2020/12/19 00:54:07;;;;;;;8.13;6.47;;;7.80;99.90;;;;;;483546;246;28465;-76
2020/12/19 00:56:08;;;;;;;7.53;5.40;;;7.80;99.90;;;;;;483503;246;28406;-75
2020/12/19 00:58:09;;;;;;;8.53;5.97;;;8.00;99.90;;;;;;483538;246;28444;-76
2020/12/19 01:00:10;;;;;;;7.07;6.37;;;8.00;99.90;;;;;;483512;246;27921;-77
2020/12/19 01:02:12;;;;;;;8.43;6.00;;;8.10;99.90;;;;;;483521;246;27883;-76
2020/12/19 01:04:13;;;;;;;5.80;5.20;;;8.10;99.90;;;;;;483541;245;27878;-76
2020/12/19 01:06:14;;;;;;;5.97;5.20;;;8.10;99.90;;;;;;483497;246;27888;-76
2020/12/19 01:08:15;;;;;;;6.70;5.90;;;8.20;99.90;;;;;;483533;246;27890;-76
2020/12/19 01:10:17;;;;;;;8.27;5.67;;;8.20;99.90;;;;;;483490;246;27538;-77
2020/12/19 01:12:18;;;;;;;5.70;4.93;;;8.30;99.90;;;;;;483511;246;27765;-76
2020/12/19 01:14:19;;;;;;;7.23;5.30;;;8.30;99.90;;;;;;483477;246;27644;-76
2020/12/19 01:16:20;;;;;;;7.00;4.60;;;8.40;99.90;;;;;;483499;246;27792;-76
2020/12/19 01:18:22;;;;;;;6.17;5.60;;;8.40;99.90;;;;;;483693;244;27496;-77
2020/12/19 01:20:23;;;;;;;6.40;5.20;;;8.40;99.90;;;;;;483756;246;28331;-77
2020/12/19 01:22:24;;;;;;;7.33;5.70;;;8.40;99.90;;;;;;483895;246;27880;-76
2020/12/19 01:24:25;;;;;;;8.10;5.77;;;8.50;99.90;;;;;;483753;246;27763;-76
2020/12/19 01:26:27;;;;;;;8.30;5.40;;;8.40;99.90;;;;;;483638;246;27679;-76
2020/12/19 01:28:28;;;;;;;7.20;5.80;;;8.40;99.90;;;;;;483624;246;28385;-77
2020/12/19 01:30:29;;;;;;;6.60;4.80;;;8.30;99.90;;;;;;483566;246;28255;-77
2020/12/19 01:32:30;;;;;;;8.20;5.10;;;8.30;99.90;;;;;;483736;246;28471;-76
2020/12/19 01:34:32;;;;;;;8.50;5.97;;;8.30;99.90;;;;;;483726;245;28562;-78
2020/12/19 01:36:33;;;;;;;8.03;4.70;;;8.20;99.90;;;;;;483772;246;27782;-75
2020/12/19 01:38:34;;;;;;;5.57;5.00;;;8.20;99.90;;;;;;483765;246;27965;-77
2020/12/19 01:40:35;;;;;;;6.73;5.63;;;8.10;99.90;;;;;;483669;243;27611;-76
2020/12/19 01:42:37;;;;;;;5.80;4.60;;;8.10;99.90;;;;;;483715;245;27988;-77
2020/12/19 01:44:38;;;;;;;7.10;5.00;;;8.10;99.90;;;;;;483533;246;27887;-77
2020/12/19 01:46:39;;;;;;;6.50;4.80;;;8.10;99.90;;;;;;483578;246;27760;-76
2020/12/19 01:48:40;;;;;;;6.53;4.67;;;8.10;99.90;;;;;;483646;246;27889;-74
2020/12/19 01:50:42;;;;;;;7.27;5.50;;;8.10;99.90;;;;;;483613;246;28098;-76
2020/12/19 01:52:43;;;;;;;7.28;5.10;;;8.00;99.90;;;;;;483660;246;27723;-76
2020/12/19 01:54:44;;;;;;;5.60;4.80;;;8.10;99.90;;;;;;483703;242;27433;-77
2020/12/19 01:56:45;;;;;;;6.37;5.27;;;8.10;99.90;;;;;;483682;244;27871;-76
2020/12/19 01:58:47;;;;;;;6.03;5.10;;;8.10;99.90;;;;;;483707;246;27874;-77
2020/12/19 02:00:48;;;;;;;10.53;5.20;;;8.10;99.90;;;;;;483595;246;27870;-76
2020/12/19 02:02:49;;;;;;;5.90;5.30;;;8.10;99.90;;;;;;483611;246;28461;-76
2020/12/19 02:04:50;;;;;;;7.10;5.57;;;8.20;99.90;;;;;;483591;246;28199;-77
2020/12/19 02:06:52;;;;;;;5.73;5.13;;;8.30;99.90;;;;;;483497;246;28386;-76
2020/12/19 02:08:54;;;;;;;6.70;5.37;;;8.30;99.90;;;;;;483517;246;28526;-77
2020/12/19 02:10:54;;;;;;;8.20;5.50;;;8.30;99.90;;;;;;483508;246;28504;-76
2020/12/19 02:12:55;;;;;;;9.53;6.00;;;8.40;99.90;;;;;;483519;246;27405;-77
2020/12/19 02:14:57;;;;;;;6.93;5.73;;;8.40;99.90;;;;;;483540;244;27877;-77
2020/12/19 02:16:58;;;;;;;6.07;5.23;;;8.40;99.90;;;;;;483529;246;27872;-76
2020/12/19 02:18:59;;;;;;;6.30;5.30;;;8.50;99.90;;;;;;483520;246;27980;-77
2020/12/19 02:21:00;;;;;;;7.93;5.40;;;8.50;99.90;;;;;;483514;246;27953;-77
2020/12/19 02:23:02;;;;;;;6.40;5.37;;;8.50;99.90;;;;;;483561;246;27880;-76
2020/12/19 02:25:03;;;;;;;8.47;5.90;;;8.50;99.90;;;;;;483526;246;27895;-77
2020/12/19 02:27:04;;;;;;;5.93;4.90;;;8.50;99.90;;;;;;483549;246;27599;-76
2020/12/19 02:29:05;;;;;;;7.33;4.70;;;8.60;99.90;;;;;;483567;242;27885;-76
2020/12/19 02:31:07;;;;;;;5.60;5.00;;;8.60;99.90;;;;;;483560;246;27914;-77
2020/12/19 02:33:08;;;;;;;6.70;5.70;;;8.50;99.90;;;;;;483547;246;27970;-77
2020/12/19 02:35:09;;;;;;;6.83;5.40;;;8.60;99.90;;;;;;483521;245;28009;-76
2020/12/19 02:37:10;;;;;;;6.63;5.30;;;8.60;99.90;;;;;;483479;246;27847;-76
2020/12/19 02:39:12;;;;;;;7.00;5.20;;;8.60;99.90;;;;;;483501;246;28504;-76
2020/12/19 02:41:13;;;;;;;6.20;5.10;;;8.60;99.90;;;;;;483519;246;28111;-77
2020/12/19 02:43:14;;;;;;;6.40;5.00;;;8.60;99.90;;;;;;483555;246;28319;-77
2020/12/19 02:45:15;;;;;;;7.73;5.60;;;8.60;99.90;;;;;;483515;246;28352;-77
2020/12/19 02:47:17;;;;;;;5.60;5.00;;;8.60;99.90;;;;;;483595;244;28525;-78
2020/12/19 02:49:18;;;;;;;6.37;4.77;;;8.50;99.90;;;;;;483644;246;28151;-77
2020/12/19 02:51:19;;;;;;;6.60;5.10;;;8.50;99.90;;;;;;483637;246;27933;-76
2020/12/19 02:53:20;;;;;;;6.73;5.60;;;8.50;99.90;;;;;;483684;246;27888;-76
2020/12/19 02:55:22;;;;;;;7.13;5.50;;;8.50;99.90;;;;;;483693;246;27975;-77
2020/12/19 02:57:23;;;;;;;6.77;5.20;;;8.40;99.90;;;;;;483732;246;27851;-78
2020/12/19 02:59:24;;;;;;;9.27;5.80;;;8.40;99.90;;;;;;483707;246;27893;-76
2020/12/19 03:01:25;;;;;;;6.90;5.47;;;8.30;99.90;;;;;;483631;246;27771;-77
2020/12/19 03:03:27;;;;;;;6.00;5.40;;;8.30;99.90;;;;;;483709;246;28050;-76
2020/12/19 03:05:28;;;;;;;6.23;5.50;;;8.20;99.90;;;;;;483521;246;27954;-76
2020/12/19 03:07:29;;;;;;;7.00;5.73;;;8.20;99.90;;;;;;483472;246;27737;-77
2020/12/19 03:09:30;;;;;;;9.87;5.80;;;8.20;99.90;;;;;;483531;246;27880;-76
2020/12/19 03:11:32;;;;;;;6.40;5.23;;;8.20;99.90;;;;;;483491;246;28312;-77
2020/12/19 03:13:33;;;;;;;6.67;5.53;;;8.20;99.90;;;;;;483537;246;27898;-76
2020/12/19 03:15:34;;;;;;;5.93;5.33;;;8.10;99.90;;;;;;483601;246;27749;-76
2020/12/19 03:17:35;;;;;;;6.83;5.37;;;8.10;99.90;;;;;;483637;246;27685;-76
2020/12/19 03:19:37;;;;;;;5.97;5.33;;;8.10;99.90;;;;;;483548;246;28521;-76
2020/12/19 03:21:38;;;;;;;6.33;5.57;;;8.10;99.90;;;;;;483638;246;28487;-76
2020/12/19 03:23:39;;;;;;;8.77;6.30;;;8.10;99.90;;;;;;483669;246;28498;-77
2020/12/19 03:25:40;;;;;;;8.73;5.87;;;8.00;99.90;;;;;;483621;246;28355;-78
2020/12/19 03:27:42;;;;;;;10.03;5.50;;;8.10;99.90;;;;;;483558;244;28337;-76
2020/12/19 03:29:43;;;;;;;6.77;5.70;;;8.00;99.90;;;;;;483488;246;27518;-76
2020/12/19 03:31:44;;;;;;;7.73;5.63;;;8.00;99.90;;;;;;483452;246;27781;-76
2020/12/19 03:33:45;;;;;;;7.90;5.57;;;8.00;99.90;;;;;;483517;246;28003;-76
2020/12/19 03:35:47;;;;;;;7.70;5.97;;;8.00;99.90;;;;;;483522;246;27530;-77
2020/12/19 03:37:48;;;;;;;9.00;6.47;;;8.00;99.90;;;;;;483495;246;28010;-76
2020/12/19 03:39:49;;;;;;;7.10;6.40;;;8.00;99.90;;;;;;483519;246;27764;-76
2020/12/19 03:41:50;;;;;;;8.00;5.73;;;8.00;99.90;;;;;;483491;246;27729;-76
2020/12/19 03:43:52;;;;;;;7.20;5.97;;;8.00;99.90;;;;;;483539;246;27949;-77
2020/12/19 03:45:53;;;;;;;8.43;5.43;;;8.00;99.90;;;;;;483538;246;28675;-77
2020/12/19 03:47:54;;;;;;;8.70;5.83;;;7.90;99.90;;;;;;483514;245;27953;-76
2020/12/19 03:49:55;;;;;;;6.60;5.77;;;7.90;99.90;;;;;;483517;246;28210;-76
2020/12/19 03:51:57;;;;;;;8.37;5.03;;;7.90;99.90;;;;;;483528;246;27739;-76
2020/12/19 03:53:58;;;;;;;6.77;5.73;;;7.90;99.90;;;;;;483569;246;27591;-76
2020/12/19 03:55:59;;;;;;;9.40;5.63;;;7.90;99.90;;;;;;483660;243;28509;-76
2020/12/19 03:58:00;;;;;;;7.87;6.00;;;7.90;99.90;;;;;;483641;246;28427;-76
2020/12/19 04:00:02;;;;;;;5.83;4.80;;;7.90;99.90;;;;;;483642;246;28034;-78
2020/12/19 04:02:03;;;;;;;9.13;6.57;;;7.90;99.90;;;;;;483666;246;28280;-76
2020/12/19 04:04:04;;;;;;;8.90;6.30;;;7.90;99.90;;;;;;483712;246;28386;-77
2020/12/19 04:06:05;;;;;;;8.53;5.87;;;7.80;99.90;;;;;;483698;246;28022;-76
2020/12/19 04:08:07;;;;;;;5.60;5.10;;;7.80;99.90;;;;;;483622;245;27991;-76
2020/12/19 04:10:08;;;;;;;7.80;5.67;;;7.80;99.90;;;;;;483547;246;28817;-78
2020/12/19 04:12:09;;;;;;;6.10;5.30;;;7.80;99.90;;;;;;483619;246;28046;-76
2020/12/19 04:14:10;;;;;;;11.03;5.10;;;7.80;99.90;;;;;;483593;246;27418;-77
2020/12/19 04:16:12;;;;;;;7.30;5.33;;;7.80;99.90;;;;;;483186;246;28465;-76
2020/12/19 04:18:13;;;;;;;9.00;5.27;;;7.80;99.90;;;;;;483544;246;28093;-76
2020/12/19 04:20:14;;;;;;;7.37;5.50;;;7.80;99.90;;;;;;483485;246;28853;-76
2020/12/19 04:22:15;;;;;;;8.27;5.33;;;7.80;99.90;;;;;;483503;246;27919;-76
2020/12/19 04:24:17;;;;;;;7.83;6.10;;;7.80;99.90;;;;;;483569;246;27920;-76
2020/12/19 04:26:18;;;;;;;8.40;5.73;;;7.80;99.90;;;;;;483519;246;29294;-78
2020/12/19 04:28:19;;;;;;;6.50;5.47;;;7.90;99.90;;;;;;483552;246;29337;-76
2020/12/19 04:30:20;;;;;;;7.20;4.90;;;7.80;99.90;;;;;;483489;246;28512;-76
2020/12/19 04:32:22;;;;;;;5.67;4.87;;;7.80;99.90;;;;;;483517;246;28815;-76
2020/12/19 04:34:23;;;;;;;6.00;4.90;;;7.80;99.90;;;;;;483535;246;28475;-77
2020/12/19 04:36:24;;;;;;;5.97;5.13;;;7.80;99.90;;;;;;483581;246;27522;-78
2020/12/19 04:38:25;;;;;;;9.63;5.83;;;7.80;99.90;;;;;;483541;246;27971;-76
2020/12/19 04:40:27;;;;;;;7.70;5.23;;;7.80;99.90;;;;;;483587;246;28751;-76
2020/12/19 04:42:28;;;;;;;7.37;5.30;;;7.70;99.90;;;;;;483501;246;27981;-76
2020/12/19 04:44:29;;;;;;;5.00;4.30;;;7.70;99.90;;;;;;483084;246;28027;-76
2020/12/19 04:46:30;;;;;;;6.33;5.27;;;7.80;99.90;;;;;;482862;246;28072;-77
2020/12/19 04:48:32;;;;;;;6.20;5.30;;;7.80;99.90;;;;;;483559;246;28336;-77
2020/12/19 04:50:33;;;;;;;8.75;5.85;;;7.90;99.90;;;;;;483725;246;28361;-77
2020/12/19 04:52:34;;;;;;;7.77;5.80;;;8.00;99.90;;;;;;483765;246;27488;-78
2020/12/19 04:54:35;;;;;;;7.20;5.70;;;8.00;99.90;;;;;;483693;246;28170;-76
2020/12/19 04:56:37;;;;;;;7.50;5.57;;;8.10;99.90;;;;;;483548;246;27957;-76
2020/12/19 04:58:38;;;;;;;6.73;4.87;;;8.20;99.90;;;;;;483535;246;28436;-74
2020/12/19 05:00:39;;;;;;;5.87;5.00;;;8.20;99.90;;;;;;483483;246;28240;-76
2020/12/19 05:02:40;;;;;;;6.57;4.60;;;8.20;99.90;;;;;;483524;246;28340;-77
2020/12/19 05:04:42;;;;;;;7.60;5.60;;;8.30;99.90;;;;;;483351;246;28914;-77
2020/12/19 05:06:43;;;;;;;6.23;4.77;;;8.30;99.90;;;;;;482857;246;28077;-76
2020/12/19 05:08:44;;;;;;;8.07;5.30;;;8.40;99.90;;;;;;483180;246;27976;-76
2020/12/19 05:10:45;;;;;;;7.70;4.57;;;8.40;99.90;;;;;;483582;246;27964;-76
2020/12/19 05:12:47;;;;;;;5.80;4.73;;;8.40;99.90;;;;;;483749;246;27905;-77
2020/12/19 05:14:48;;;;;;;7.60;5.27;;;8.40;99.90;;;;;;483695;246;27831;-76
2020/12/19 05:16:49;;;;;;;5.57;4.80;;;8.40;99.90;;;;;;483706;246;27880;-76
2020/12/19 05:18:50;;;;;;;4.40;4.00;;;8.50;99.90;;;;;;483699;244;27894;-76
2020/12/19 05:20:52;;;;;;;6.03;4.40;;;8.50;99.90;;;;;;483501;246;27742;-76
2020/12/19 05:22:53;;;;;;;7.27;5.07;;;8.40;99.90;;;;;;483665;246;27922;-78
2020/12/19 05:24:54;;;;;;;6.20;4.97;;;8.40;99.90;;;;;;483589;246;27863;-76
2020/12/19 05:26:55;;;;;;;5.03;4.53;;;8.40;99.90;;;;;;483550;246;27887;-76
2020/12/19 05:28:57;;;;;;;6.77;4.70;;;8.40;99.90;;;;;;483527;246;27758;-76
2020/12/19 05:30:58;;;;;;;5.50;4.80;;;8.40;99.90;;;;;;483449;246;27901;-74
2020/12/19 05:32:59;;;;;;;7.80;4.90;;;8.40;99.90;;;;;;483539;246;27902;-76
2020/12/19 05:35:00;;;;;;;6.13;4.93;;;8.40;99.90;;;;;;483526;246;27833;-76
2020/12/19 05:37:02;;;;;;;6.67;4.20;;;8.40;99.90;;;;;;483598;244;28369;-77
2020/12/19 05:39:03;;;;;;;6.03;4.20;;;8.40;99.90;;;;;;483578;246;29280;-77
2020/12/19 05:41:04;;;;;;;5.43;4.23;;;8.40;99.90;;;;;;483409;246;28375;-76
2020/12/19 05:43:05;;;;;;;5.47;4.57;;;8.30;99.90;;;;;;483524;246;28457;-76
2020/12/19 05:45:07;;;;;;;5.67;4.80;;;8.40;99.90;;;;;;483574;246;28433;-76
2020/12/19 05:47:08;;;;;;;5.07;4.57;;;8.40;99.90;;;;;;483589;246;27550;-77
2020/12/19 05:49:09;;;;;;;5.07;4.23;;;8.30;99.90;;;;;;483527;246;28114;-78
2020/12/19 05:51:10;;;;;;;4.60;4.10;;;8.30;99.90;;;;;;483462;244;27647;-77
2020/12/19 05:53:12;;;;;;;4.53;4.00;;;8.30;99.90;;;;;;483512;246;27903;-76
2020/12/19 05:55:13;;;;;;;6.67;4.20;;;8.30;99.90;;;;;;483521;246;28334;-76
2020/12/19 05:57:14;;;;;;;4.87;4.37;;;8.20;99.90;;;;;;483515;246;27633;-76
2020/12/19 05:59:15;;;;;;;5.00;4.23;;;8.20;99.90;;;;;;483609;246;27885;-76
2020/12/19 06:01:17;;;;;;;4.60;3.73;;;8.20;99.90;;;;;;483533;246;28110;-75
2020/12/19 06:03:18;;;;;;;4.97;4.13;;;8.20;99.90;;;;;;483667;246;27817;-76
2020/12/19 06:05:19;;;;;;;4.80;3.47;;;8.30;99.90;;;;;;483664;246;27984;-76
2020/12/19 06:07:20;;;;;;;5.60;3.77;;;8.40;99.90;;;;;;483640;244;27743;-76
2020/12/19 06:09:22;;;;;;;4.17;3.77;;;8.40;99.90;;;;;;483555;246;27756;-76
2020/12/19 06:11:23;;;;;;;5.23;3.60;;;8.40;99.90;;;;;;482639;246;27423;-77
2020/12/19 06:13:24;;;;;;;4.60;4.07;;;8.50;99.90;;;;;;483530;246;27872;-76
2020/12/19 06:15:25;;;;;;;4.63;3.77;;;8.50;99.90;;;;;;483528;246;28558;-76
2020/12/19 06:17:27;;;;;;;3.70;3.40;;;8.50;99.90;;;;;;483538;245;28692;-76
2020/12/19 06:19:28;;;;;;;6.03;4.07;;;8.50;99.90;;;;;;483523;246;28369;-77
2020/12/19 06:21:29;;;;;;;4.53;4.10;;;8.40;99.90;;;;;;483478;246;28168;-76
2020/12/19 06:23:30;;;;;;;4.83;4.33;;;8.50;99.90;;;;;;483476;246;28245;-77
2020/12/19 06:25:32;;;;;;;6.73;3.77;;;8.50;99.90;;;;;;483571;246;27402;-76
2020/12/19 06:27:33;;;;;;;5.70;4.10;;;8.50;99.90;;;;;;483540;245;27869;-76
2020/12/19 06:29:35;;;;;;;3.93;3.43;;;8.50;99.90;;;;;;483491;246;27887;-76
2020/12/19 06:31:35;;;;;;;4.37;3.80;;;8.50;99.90;;;;;;483285;246;27896;-77
2020/12/19 06:33:37;;;;;;;3.83;3.53;;;8.50;99.90;;;;;;483405;246;27868;-76
2020/12/19 06:35:38;;;;;;;3.17;2.93;;;8.50;99.90;;;;;;483431;246;27776;-77
2020/12/19 06:37:39;;;;;;;3.70;3.37;;;8.60;99.90;;;;;;483410;246;27969;-76
2020/12/19 06:39:40;;;;;;;9.40;3.70;;;8.70;99.90;;;;;;483186;246;27855;-77
2020/12/19 06:41:42;;;;;;;5.43;3.80;;;8.80;99.90;;;;;;483412;246;27880;-78
2020/12/19 06:43:43;;;;;;;4.87;3.57;;;8.70;99.90;;;;;;483560;246;27702;-76
2020/12/19 06:45:44;;;;;;;4.23;3.30;;;8.70;99.90;;;;;;483634;246;28019;-76
2020/12/19 06:47:45;;;;;;;5.13;3.20;;;8.80;99.90;;;;;;483629;246;27835;-76
2020/12/19 06:49:47;;;;;;;3.40;3.10;;;8.80;99.90;;;;;;483416;246;27540;-76
2020/12/19 06:51:48;;;;;;;4.80;3.50;;;8.90;99.90;;;;;;483272;246;28559;-77
2020/12/19 06:53:49;;;;;;;4.10;3.70;;;8.80;99.90;;;;;;483712;246;28062;-77
2020/12/19 06:55:50;;;;;;;3.93;3.63;;;8.80;99.90;;;;;;483709;245;28440;-77
2020/12/19 06:57:52;;;;;;;3.90;3.53;;;8.80;99.90;;;;;;483716;246;28422;-76
2020/12/19 06:59:53;;;;;;;4.80;3.00;;;8.70;99.90;;;;;;483699;246;28386;-76
2020/12/19 07:01:54;;;;;;;5.07;3.70;;;8.70;99.90;;;;;;483483;246;28023;-76
2020/12/19 07:03:55;;;;;;;4.27;3.30;;;8.60;99.90;;;;;;483542;246;27518;-76
2020/12/19 07:05:56;;;;;;;3.80;3.40;;;8.70;99.90;;;;;;483547;246;27886;-77
2020/12/19 07:07:58;;;;;;;4.03;3.50;;;8.80;99.90;;;;;;483583;246;27850;-76
2020/12/19 07:09:59;;;;;;;3.40;3.10;;;8.80;99.90;;;;;;483517;246;27785;-76
2020/12/19 07:12:00;;;;;;;5.93;3.00;;;8.80;99.90;;;;;;483484;246;27959;-77
2020/12/19 07:14:01;;;;;;;3.47;3.00;;;8.90;99.90;;;;;;483517;246;27520;-76
2020/12/19 07:16:03;;;;;;;4.30;3.20;;;8.90;99.90;;;;;;483535;246;28279;-77
2020/12/19 07:18:04;;;;;;;4.17;3.23;;;8.90;99.90;;;;;;483525;246;27826;-77
2020/12/19 07:20:05;;;;;;;3.03;2.83;;;8.90;99.90;;;;;;483460;242;27899;-76
2020/12/19 07:22:06;;;;;;;4.60;3.53;;;8.90;99.90;;;;;;483371;246;27904;-76
2020/12/19 07:24:08;;;;;;;4.77;3.20;;;9.00;99.90;;;;;;483509;246;27890;-76
2020/12/19 07:26:09;;;;;;;3.50;2.73;;;9.00;99.90;;;;;;483507;246;27497;-76
2020/12/19 07:28:10;;;;;;;3.00;2.80;;;9.10;99.90;;;;;;483509;246;28379;-77
2020/12/19 07:30:11;;;;;;;3.50;3.20;;;9.10;99.90;;;;;;483536;246;27901;-77
2020/12/19 07:32:13;;;;;;;3.60;2.80;;;9.10;99.90;;;;;;483600;246;28129;-77
2020/12/19 07:34:14;;;;;;;3.00;2.70;;;9.10;99.90;;;;;;483634;243;28480;-77
2020/12/19 07:36:15;;;;;;;2.73;2.53;;;9.00;99.90;;;;;;483667;246;28243;-76
2020/12/19 07:38:16;;;;;;;3.23;2.57;;;9.00;99.90;;;;;;483618;246;28262;-76
2020/12/19 07:40:18;;;;;;;6.80;2.60;;;9.00;99.90;;;;;;483562;246;27891;-77
2020/12/19 07:42:19;;;;;;;4.20;2.70;;;9.00;99.90;;;;;;483508;246;27534;-76
2020/12/19 07:44:20;;;;;;;4.00;3.27;;;9.00;99.90;;;;;;483474;246;27876;-76
2020/12/19 07:46:21;;;;;;;3.57;2.80;;;9.10;99.90;;;;;;483556;246;27696;-76
2020/12/19 07:48:23;;;;;;;3.30;2.77;;;9.10;99.90;;;;;;483528;246;27516;-77
2020/12/19 07:50:24;;;;;;;3.70;3.33;;;9.20;99.90;;;;;;483506;246;27874;-77
2020/12/19 07:52:26;;;;;;;3.97;2.93;;;9.20;99.90;;;;;;483548;246;28077;-76
2020/12/19 07:54:26;;;;;;;3.40;2.77;;;9.20;99.90;;;;;;483592;246;27610;-77
2020/12/19 07:56:28;;;;;;;6.30;2.80;;;9.20;99.90;;;;;;483456;246;27850;-75
2020/12/19 07:58:29;;;;;;;3.93;3.00;;;9.30;99.90;;;;;;482688;244;27948;-77
2020/12/19 08:00:30;;;;;;;3.10;2.80;;;9.30;99.90;;;;;;483336;246;27934;-76
2020/12/19 08:02:31;;;;;;;3.93;2.70;;;9.30;99.90;;;;;;483553;246;27950;-75
2020/12/19 08:04:33;;;;;;;3.57;3.07;;;9.30;99.90;;;;;;483682;246;27904;-78
2020/12/19 08:08:55;;;;;;;4.40;2.70;;;9.40;99.90;;;;;;491999;241;28875;-75
2020/12/19 08:10:56;;;;;;;3.27;2.90;;;9.40;99.90;;;;;;491933;241;27408;-76
2020/12/19 08:12:57;;;;;;;4.83;3.47;;;9.50;99.90;;;;;;483121;246;27952;-76
2020/12/19 08:14:58;;;;;;;5.30;3.60;;;9.50;99.90;;;;;;491940;241;27931;-76
2020/12/19 08:17:00;;;;;;;3.30;2.67;;;9.60;99.90;;;;;;482995;246;27844;-76
2020/12/19 08:19:01;;;;;;;6.93;2.80;;;9.50;99.90;;;;;;491879;241;27753;-76
2020/12/19 08:21:02;;;;;;;6.43;2.73;;;9.50;99.90;;;;;;482998;246;27902;-77
2020/12/19 08:23:03;;;;;;;4.77;2.73;;;9.50;99.90;;;;;;492162;240;27925;-77
2020/12/19 08:25:05;;;;;;;2.80;2.50;;;9.60;99.90;;;;;;483232;245;28015;-76
2020/12/19 08:27:06;;;;;;;3.07;2.77;;;9.60;99.90;;;;;;492076;241;27879;-76
2020/12/19 08:29:07;;;;;;;3.50;2.60;;;9.60;99.90;;;;;;482981;246;28097;-76
2020/12/19 08:31:08;;;;;;;4.07;2.70;;;9.60;99.90;;;;;;487144;244;27990;-76
2020/12/19 08:33:10;;;;;;;2.70;2.50;;;9.60;99.90;;;;;;491857;241;28048;-75
2020/12/19 08:35:11;;;;;;;3.97;2.40;;;9.50;99.90;;;;;;483029;246;27565;-76
2020/12/19 08:37:12;;;;;;;2.70;2.50;;;9.50;99.90;;;;;;491963;241;28339;-76
2020/12/19 08:39:13;;;;;;;2.60;2.40;;;9.50;99.90;;;;;;474643;245;28370;-76
2020/12/19 08:41:15;;;;;;;2.90;2.60;;;9.50;99.90;;;;;;468724;252;28479;-76
2020/12/19 08:43:16;;;;;;;2.97;2.67;;;9.50;99.90;;;;;;468757;252;28424;-76
2020/12/19 08:45:17;;;;;;;3.00;2.57;;;9.50;99.90;;;;;;468812;252;28689;-76
2020/12/19 08:47:18;;;;;;;3.03;2.70;;;9.50;99.90;;;;;;468808;252;28229;-76
2020/12/19 08:49:20;;;;;;;3.67;3.00;;;9.50;99.90;;;;;;468778;252;28052;-76
2020/12/19 08:51:21;;;;;;;2.70;2.50;;;9.50;99.90;;;;;;468742;252;28117;-76
2020/12/19 08:53:22;;;;;;;3.80;2.60;;;9.50;99.90;;;;;;468786;252;28207;-76
2020/12/19 08:55:23;;;;;;;3.30;3.00;;;9.60;99.90;;;;;;468824;253;27778;-77
2020/12/19 08:57:25;;;;;;;3.13;2.83;;;9.60;99.90;;;;;;468863;252;27780;-75
2020/12/19 08:59:26;;;;;;;2.77;2.47;;;9.60;99.90;;;;;;468938;252;28043;-76
2020/12/19 09:01:27;;;;;;;2.50;2.30;;;9.60;99.90;;;;;;468857;253;28183;-76
2020/12/19 09:03:28;;;;;;;2.67;2.47;;;9.70;99.90;;;;;;468835;252;28047;-76
2020/12/19 09:05:30;;;;;;;3.00;2.67;;;9.70;99.90;;;;;;468818;252;28041;-76
2020/12/19 09:07:31;;;;;;;3.50;2.83;;;9.80;99.90;;;;;;468841;252;28096;-77
2020/12/19 09:09:32;;;;;;;6.03;3.20;;;9.70;99.90;;;;;;468809;252;28011;-76
2020/12/19 09:11:33;;;;;;;2.80;2.60;;;9.70;99.90;;;;;;468794;252;28131;-77
2020/12/19 09:13:35;;;;;;;3.33;2.77;;;9.70;99.90;;;;;;468838;253;27999;-76
2020/12/19 09:15:36;;;;;;;3.10;2.80;;;9.70;99.90;;;;;;468877;252;28170;-76
2020/12/19 09:17:37;;;;;;;3.23;2.73;;;9.70;99.90;;;;;;468918;252;28449;-76
2020/12/19 09:19:38;;;;;;;2.70;2.50;;;9.70;99.90;;;;;;468903;253;28396;-76
2020/12/19 09:21:40;;;;;;;2.80;2.60;;;9.70;99.90;;;;;;468887;252;28034;-78
2020/12/19 09:23:41;;;;;;;2.70;2.50;;;9.70;99.90;;;;;;468934;252;28500;-76
2020/12/19 09:25:42;;;;;;;3.93;2.80;;;9.70;99.90;;;;;;468944;252;28520;-76
2020/12/19 09:27:43;;;;;;;2.80;2.60;;;9.60;99.90;;;;;;468906;252;27991;-76
2020/12/19 09:29:45;;;;;;;3.50;2.43;;;9.70;99.90;;;;;;468635;252;28129;-76
2020/12/19 09:31:46;;;;;;;2.60;2.40;;;9.70;99.90;;;;;;468784;252;28140;-77
2020/12/19 09:33:47;;;;;;;2.93;2.20;;;9.70;99.90;;;;;;468541;252;27997;-75
2020/12/19 09:35:48;;;;;;;3.07;2.37;;;9.70;99.90;;;;;;468804;252;28037;-76
2020/12/19 09:37:50;;;;;;;3.10;2.27;;;9.80;99.90;;;;;;468858;252;28102;-76
2020/12/19 09:39:51;;;;;;;3.80;2.20;;;9.70;99.90;;;;;;468780;252;27721;-76
2020/12/19 09:41:52;;;;;;;2.87;2.53;;;9.70;99.90;;;;;;468889;252;28140;-76
2020/12/19 09:43:53;;;;;;;2.97;2.40;;;9.70;99.90;;;;;;468896;253;27884;-76
2020/12/19 09:45:56;;;;;;;2.70;2.50;;;9.70;99.90;;;;;;468880;253;28090;-76
2020/12/19 09:47:56;;;;;;;3.03;2.50;;;9.70;99.90;;;;;;468807;253;28180;-77
2020/12/19 09:49:57;;;;;;;2.90;2.57;;;9.70;99.90;;;;;;468851;252;28120;-76
2020/12/19 09:51:58;;;;;;;2.50;2.30;;;9.70;99.90;;;;;;468796;252;28062;-76
2020/12/19 09:54:00;;;;;;;2.60;2.30;;;9.70;99.90;;;;;;468703;253;28339;-76
2020/12/19 09:56:01;;;;;;;3.10;2.80;;;9.70;99.90;;;;;;468790;252;28477;-76
2020/12/19 09:58:02;;;;;;;3.17;2.73;;;9.80;99.90;;;;;;468718;253;28666;-76
2020/12/19 10:00:03;;;;;;;2.63;2.43;;;9.90;99.90;;;;;;468723;251;28545;-76
2020/12/19 10:02:05;;;;;;;2.87;2.63;;;10.00;99.90;;;;;;468745;252;28256;-77
2020/12/19 10:04:06;;;;;;;2.90;2.70;;;10.10;99.90;;;;;;468738;252;28176;-76
2020/12/19 10:06:08;;;;;;;3.23;2.70;;;10.20;99.90;;;;;;468751;252;28020;-77
2020/12/19 10:08:08;;;;;;;4.53;2.83;;;10.20;99.90;;;;;;469064;253;28078;-77
2020/12/19 10:10:10;;;;;;;3.87;2.47;;;10.30;99.90;;;;;;468999;253;27524;-77
2020/12/19 10:12:11;;;;;;;2.50;2.30;;;10.40;99.90;;;;;;468752;252;28064;-76
2020/12/19 10:14:12;;;;;;;2.33;2.13;;;10.40;99.90;;;;;;468740;252;28158;-76
2020/12/19 10:16:13;;;;;;;3.10;2.80;;;10.50;99.90;;;;;;468771;252;28124;-76
2020/12/19 10:18:15;;;;;;;2.73;2.10;;;10.50;99.90;;;;;;468746;252;27718;-76
2020/12/19 10:20:16;;;;;;;2.30;2.10;;;10.50;99.90;;;;;;468691;252;28570;-77
2020/12/19 10:22:17;;;;;;;3.10;2.67;;;10.50;99.90;;;;;;468701;253;28528;-76
2020/12/19 10:24:18;;;;;;;2.90;2.70;;;10.50;99.90;;;;;;468704;252;28763;-77
2020/12/19 10:26:23;;;;;;;2.47;2.27;;;10.50;99.90;;;;;;468768;252;29184;-77
2020/12/19 10:28:21;;;;;;;3.13;2.47;;;10.60;99.90;;;;;;468707;253;27982;-76
2020/12/19 10:30:22;;;;;;;5.00;2.60;;;10.60;99.90;;;;;;468877;252;28148;-77
2020/12/19 10:32:23;;;;;;;3.63;2.30;;;10.60;99.90;;;;;;468952;253;28095;-76
2020/12/19 10:34:25;;;;;;;4.13;2.70;;;10.60;99.90;;;;;;468830;252;28240;-77
2020/12/19 10:36:26;;;;;;;3.33;3.03;;;10.70;99.90;;;;;;468798;252;28036;-76
2020/12/19 10:38:27;;;;;;;5.60;2.57;;;10.70;99.90;;;;;;468816;253;27924;-76
2020/12/19 10:40:28;;;;;;;2.70;2.50;;;10.70;99.90;;;;;;468888;252;28026;-76